HKLO 020300Z 12004KT CAVOK 27/16 Q1011
From batch tds/metars/production/2022/10/2/h03_m55_metars.cache.csv.gz
Observed at (about 4 hours ago)
Identifier HKLO
HKLO 012000Z 09004KT CAVOK 33/14 Q1009
From batch tds/metars/production/2022/10/1/h20_m55_metars.cache.csv.gz
Observed at (about 11 hours ago)
Identifier HKLO
HKLO 011800Z 11003KT CAVOK 33/14 Q1008
From batch tds/metars/production/2022/10/1/h18_m51_metars.cache.csv.gz
Observed at (about 13 hours ago)
Identifier HKLO
HKLO 010700Z 10005KT CAVOK 31/14 Q1013
From batch tds/metars/production/2022/10/1/h07_m59_metars.cache.csv.gz
Observed at (about 24 hours ago)
Identifier HKLO
HKLO 010600Z 13005KT CAVOK 29/15 Q1015
From batch tds/metars/production/2022/10/1/h06_m55_metars.cache.csv.gz
Observed at (1 day ago)
Identifier HKLO
HKLO 302000Z 15009KT SKC 31/13 Q1008
From batch tds/metars/production/2022/9/30/h20_m53_metars.cache.csv.gz
Observed at (1 day ago)
Identifier HKLO
HKLO 301800Z 15004KT SKC 32/12 Q1007
From batch tds/metars/production/2022/9/30/h18_m54_metars.cache.csv.gz
Observed at (1 day ago)
Identifier HKLO
HKLO 301700Z 09003KT CAVOK 33/12 Q1006
From batch tds/metars/production/2022/9/30/h17_m49_metars.cache.csv.gz
Observed at (1 day ago)
Identifier HKLO
HKLO 301200Z 09005KT 9999 SCT034 35/12 Q1006
From batch tds/metars/production/2022/9/30/h12_m59_metars.cache.csv.gz
Observed at (2 days ago)
Identifier HKLO
HKLO 301000Z 12006KT 9999 SCT033 34/12 Q1008
From batch tds/metars/production/2022/9/30/h10_m58_metars.cache.csv.gz
Observed at (2 days ago)
Identifier HKLO
HKLO 300900Z 09005KT 9999 FEW030 SCT280 33/14 Q1010
From batch tds/metars/production/2022/9/30/h09_m55_metars.cache.csv.gz
Observed at (2 days ago)
Identifier HKLO
HKLO 300800Z 12009KT CAVOK 31/15 Q1011
From batch tds/metars/production/2022/9/30/h08_m59_metars.cache.csv.gz
Observed at (2 days ago)
Identifier HKLO
HKLO 300700Z 13009KT CAVOK 31/15 Q1012
From batch tds/metars/production/2022/9/30/h07_m49_metars.cache.csv.gz
Observed at (2 days ago)
Identifier HKLO
HKLO 300500Z 10004KT CAVOK 27/16 Q1012
From batch tds/metars/production/2022/9/30/h05_m55_metars.cache.csv.gz
Observed at (2 days ago)
Identifier HKLO
HKLO 292100Z 12005KT SKC 30/14 Q1009
From batch tds/metars/production/2022/9/29/h21_m51_metars.cache.csv.gz
Observed at (2 days ago)
Identifier HKLO
HKLO 292000Z 13003KT CAVOK 30/14 Q1008
From batch tds/metars/production/2022/9/29/h20_m53_metars.cache.csv.gz
Observed at (2 days ago)
Identifier HKLO
HKLO 291900Z 00000KT CAVOK 29/14 Q1008
From batch tds/metars/production/2022/9/29/h19_m59_metars.cache.csv.gz
Observed at (2 days ago)
Identifier HKLO
HKLO 291800Z 09003KT CAVOK 28/14 Q1008
From batch tds/metars/production/2022/9/29/h18_m59_metars.cache.csv.gz
Observed at (3 days ago)
Identifier HKLO
HKLO 291600Z 09004KT CAVOK 30/14 Q1007
From batch tds/metars/production/2022/9/29/h16_m59_metars.cache.csv.gz
Observed at (3 days ago)
Identifier HKLO
HKLO 291100Z 08006KT CAVOK 32/14 Q1009
From batch tds/metars/production/2022/9/29/h11_m59_metars.cache.csv.gz
Observed at (3 days ago)
Identifier HKLO
HKLO 291000Z 12007KT CAVOK 31/14 Q1010
From batch tds/metars/production/2022/9/29/h10_m52_metars.cache.csv.gz
Observed at (3 days ago)
Identifier HKLO
HKLO 290900Z 14007KT CAVOK 30/15 Q1011
From batch tds/metars/production/2022/9/29/h09_m59_metars.cache.csv.gz
Observed at (3 days ago)
Identifier HKLO
HKLO 290800Z 12005KT CAVOK 30/15 Q1011
From batch tds/metars/production/2022/9/29/h08_m59_metars.cache.csv.gz
Observed at (3 days ago)
Identifier HKLO
HKLO 290700Z 09006KT CAVOK 30/15 Q1011
From batch tds/metars/production/2022/9/29/h07_m57_metars.cache.csv.gz
Observed at (3 days ago)
Identifier HKLO
HKLO 290600Z 14009KT CAVOK 28/16 Q1012
From batch tds/metars/production/2022/9/29/h06_m50_metars.cache.csv.gz
Observed at (3 days ago)
Identifier HKLO
HKLO 290500Z 12006KT CAVOK 26/17
From batch tds/metars/production/2022/9/29/h05_m51_metars.cache.csv.gz
Observed at (3 days ago)
Identifier HKLO
HKLO 282100Z 13004KT SKC 31/14 Q1008
From batch tds/metars/production/2022/9/28/h21_m59_metars.cache.csv.gz
Observed at (3 days ago)
Identifier HKLO
HKLO 281800Z 10005KT CAVOK 31/13 Q1008
From batch tds/metars/production/2022/9/28/h18_m56_metars.cache.csv.gz
Observed at (4 days ago)
Identifier HKLO
HKLO 281100Z 13012KT 9999 FEW034 SCT280 35/12 Q1008
From batch tds/metars/production/2022/9/28/h11_m52_metars.cache.csv.gz
Observed at (4 days ago)
Identifier HKLO
HKLO 281000Z 09006KT 9999 FEW032 SCT280 34/12 Q1010
From batch tds/metars/production/2022/9/28/h10_m55_metars.cache.csv.gz
Observed at (4 days ago)
Identifier HKLO
HKLO 280800Z 09015KT CAVOK 32/13 Q1011
From batch tds/metars/production/2022/9/28/h08_m53_metars.cache.csv.gz
Observed at (4 days ago)
Identifier HKLO
HKLO 280700Z 12005KT CAVOK 31/14 Q1013
From batch tds/metars/production/2022/9/28/h07_m58_metars.cache.csv.gz
Observed at (4 days ago)
Identifier HKLO
HKLO 280600Z 10005KT CAVOK 29/14 Q1013
From batch tds/metars/production/2022/9/28/h06_m59_metars.cache.csv.gz
Observed at (4 days ago)
Identifier HKLO
HKLO 271800Z 14007KT CAVOK 31/12 Q1007
From batch tds/metars/production/2022/9/27/h18_m49_metars.cache.csv.gz
Observed at (5 days ago)
Identifier HKLO
HKLO 270700Z 12007KT CAVOK 30/16 Q1012
From batch tds/metars/production/2022/9/27/h07_m57_metars.cache.csv.gz
Observed at (5 days ago)
Identifier HKLO
HKLO 270400Z 08009KT CAVOK 26/16 Q1010
From batch tds/metars/production/2022/9/27/h04_m59_metars.cache.csv.gz
Observed at (5 days ago)
Identifier HKLO
HKLO 262000Z 13024KT CAVOK 31/13 Q1008
From batch tds/metars/production/2022/9/26/h20_m59_metars.cache.csv.gz
Observed at (5 days ago)
Identifier HKLO
HKLO 261800Z 09014KT CAVOK 32/12 Q1007
From batch tds/metars/production/2022/9/26/h18_m59_metars.cache.csv.gz
Observed at (6 days ago)
Identifier HKLO
HKLO 261600Z 14010KT CAVOK 33/12 Q1006
From batch tds/metars/production/2022/9/26/h16_m57_metars.cache.csv.gz
Observed at (6 days ago)
Identifier HKLO
HKLO 261500Z 12013KT CAVOK 34/12 Q1006
From batch tds/metars/production/2022/9/26/h15_m51_metars.cache.csv.gz
Observed at (6 days ago)
Identifier HKLO
HKLO 261000Z 12010KT 9999 BKN033 35/12 Q1008
From batch tds/metars/production/2022/9/26/h10_m58_metars.cache.csv.gz
Observed at (6 days ago)
Identifier HKLO
HKLO 260900Z 13007KT 9999 SCT033 34/14 Q1011
From batch tds/metars/production/2022/9/26/h09_m59_metars.cache.csv.gz
Observed at (6 days ago)
Identifier HKLO
HKLO 260700Z 08005KT CAVOK 31/16 Q1012
From batch tds/metars/production/2022/9/26/h07_m57_metars.cache.csv.gz
Observed at (6 days ago)
Identifier HKLO
HKLO 260500Z 09006KT CAVOK 28/15 Q1011
From batch tds/metars/production/2022/9/26/h05_m59_metars.cache.csv.gz
Observed at (6 days ago)
Identifier HKLO
HKLO 252100Z 10019KT SKC 29/14 Q1009
From batch tds/metars/production/2022/9/25/h21_m59_metars.cache.csv.gz
Observed at (6 days ago)
Identifier HKLO
HKLO 252000Z 13007KT SKC 30/14 Q1008
From batch tds/metars/production/2022/9/25/h20_m56_metars.cache.csv.gz
Observed at (6 days ago)
Identifier HKLO
HKLO 251800Z 10005KT CAVOK 32/14 Q1008
From batch tds/metars/production/2022/9/25/h18_m57_metars.cache.csv.gz
Observed at (7 days ago)
Identifier HKLO
HKLO 251000Z 12009KT 9999 SCT033 35/13 Q1006
From batch tds/metars/production/2022/9/25/h10_m58_metars.cache.csv.gz
Observed at (7 days ago)
Identifier HKLO
talk